Time;durP1;ratioP1;P1;durP2;ratioP2;P2;SDS_P1;SDS_P2;PMS_P1;PMS_P2;Temp;Humidity;BMP_temperature;BMP_pressure;BME280_temperature;BME280_humidity;BME280_pressure;Samples;Min_cycle;Max_cycle;Signal;HPM_P1;HPM_P2
2023/05/25 00:02:03;;;;;;;15.98;8.65;;;20.70;77.30;;;;;;6244419;23;20027;-77
2023/05/25 00:04:35;;;;;;;13.60;8.20;;;20.60;77.00;;;;;;6244278;23;20093;-78
2023/05/25 00:07:02;;;;;;;12.00;8.00;;;20.60;78.00;;;;;;6244467;23;20008;-77
2023/05/25 00:09:27;;;;;;;18.13;8.05;;;20.50;77.20;;;;;;6244188;23;20000;-77
2023/05/25 00:11:53;;;;;;;13.85;8.43;;;20.50;77.30;;;;;;6244498;23;20004;-78
2023/05/25 00:14:19;;;;;;;14.48;8.65;;;20.50;77.40;;;;;;6244226;23;20067;-79
2023/05/25 00:16:47;;;;;;;13.13;7.72;;;20.50;77.40;;;;;;6244297;23;20043;-78
2023/05/25 00:19:13;;;;;;;11.63;8.10;;;20.50;77.40;;;;;;6245225;23;19996;-79
2023/05/25 00:21:40;;;;;;;11.48;6.88;;;20.50;77.00;;;;;;6244152;23;20027;-78
2023/05/25 00:24:07;;;;;;;12.13;7.28;;;20.40;77.30;;;;;;6244488;23;20102;-79
2023/05/25 00:26:36;;;;;;;12.52;7.28;;;20.40;77.40;;;;;;6244366;23;20004;-78
2023/05/25 00:29:02;;;;;;;11.00;6.90;;;20.40;77.20;;;;;;6244585;23;20095;-79
2023/05/25 00:31:31;;;;;;;16.40;7.97;;;20.40;77.00;;;;;;6242836;23;20068;-78
2023/05/25 00:33:59;;;;;;;13.57;7.35;;;20.40;77.40;;;;;;6244342;23;20004;-78
2023/05/25 00:36:25;;;;;;;14.45;7.63;;;20.40;77.40;;;;;;6244366;23;20019;-77
2023/05/25 00:38:50;;;;;;;12.25;6.70;;;20.30;77.50;;;;;;6244840;23;20000;-77
2023/05/25 00:41:17;;;;;;;14.95;7.93;;;20.30;77.40;;;;;;6244708;23;20080;-78
2023/05/25 00:43:46;;;;;;;19.75;8.10;;;20.30;77.10;;;;;;6244652;23;20095;-78
2023/05/25 00:46:14;;;;;;;19.77;8.45;;;20.30;77.60;;;;;;6244519;23;20008;-78
2023/05/25 00:48:41;;;;;;;23.60;7.95;;;20.20;77.70;;;;;;6244285;23;20007;-77
2023/05/25 00:51:08;;;;;;;30.27;8.93;;;20.20;77.80;;;;;;6244304;23;20004;-78
2023/05/25 00:53:35;;;;;;;24.17;7.95;;;20.20;77.90;;;;;;6244842;23;20004;-78
2023/05/25 00:56:12;;;;;;;14.02;8.15;;;20.20;78.00;;;;;;6244373;23;20011;-76
2023/05/25 00:58:40;;;;;;;12.23;7.13;;;20.10;77.70;;;;;;6244483;23;20004;-78
2023/05/25 01:01:10;;;;;;;12.18;7.72;;;20.10;78.10;;;;;;6244395;23;20000;-78
2023/05/25 01:03:38;;;;;;;13.95;7.22;;;20.00;78.40;;;;;;6244723;23;20326;-78
2023/05/25 01:06:10;;;;;;;11.93;7.43;;;20.00;78.40;;;;;;6245078;23;20068;-77
2023/05/25 01:08:38;;;;;;;13.55;7.85;;;19.90;78.50;;;;;;6244390;23;20000;-78
2023/05/25 01:11:06;;;;;;;14.45;7.82;;;19.90;78.50;;;;;;6217415;23;20053;-76
2023/05/25 01:13:34;;;;;;;13.13;7.40;;;19.90;78.70;;;;;;6244519;23;20328;-77
2023/05/25 01:16:00;;;;;;;12.60;7.63;;;19.90;79.00;;;;;;6217298;23;20014;-77
2023/05/25 01:18:26;;;;;;;11.80;7.45;;;19.90;79.00;;;;;;6244449;23;20004;-79
2023/05/25 01:21:00;;;;;;;12.35;6.80;;;19.90;79.20;;;;;;6217399;23;20008;-76
2023/05/25 01:23:31;;;;;;;15.55;7.30;;;19.80;79.70;;;;;;6217122;23;20015;-78
2023/05/25 01:26:01;;;;;;;11.30;6.75;;;19.80;78.90;;;;;;6243808;23;20166;-77
2023/05/25 01:28:39;;;;;;;12.93;7.22;;;19.80;78.90;;;;;;6244019;23;20414;-76
2023/05/25 01:31:07;;;;;;;9.65;6.63;;;19.80;78.80;;;;;;6244027;23;20008;-77
2023/05/25 01:33:35;;;;;;;9.75;6.95;;;19.70;78.90;;;;;;6244067;23;19996;-78
2023/05/25 01:36:01;;;;;;;10.20;7.53;;;19.60;79.10;;;;;;6243492;23;20228;-78
2023/05/25 01:38:27;;;;;;;13.40;6.80;;;19.60;79.20;;;;;;6243848;23;20004;-78
2023/05/25 01:40:53;;;;;;;14.00;6.88;;;19.60;79.50;;;;;;6243988;23;20049;-77
2023/05/25 01:43:19;;;;;;;11.32;7.05;;;19.60;79.60;;;;;;6243731;23;20008;-78
2023/05/25 01:45:45;;;;;;;13.07;7.25;;;19.50;79.70;;;;;;6244050;23;20004;-78
2023/05/25 01:48:31;;;;;;;12.90;6.80;;;19.50;79.70;;;;;;6246744;23;20380;-77
2023/05/25 01:51:01;;;;;;;10.80;7.13;;;19.50;80.50;;;;;;6245979;23;20004;-77
2023/05/25 01:53:36;;;;;;;12.82;7.80;;;19.50;79.80;;;;;;6245917;23;20000;-76
2023/05/25 01:56:10;;;;;;;12.95;7.20;;;19.40;80.60;;;;;;6218172;23;20008;-78
2023/05/25 01:58:41;;;;;;;15.25;7.53;;;19.40;80.10;;;;;;6245665;23;20008;-78
2023/05/25 02:01:08;;;;;;;10.55;6.95;;;19.40;80.20;;;;;;6245782;23;20330;-78
2023/05/25 02:03:36;;;;;;;13.02;7.20;;;19.30;80.10;;;;;;6245469;23;20075;-76
2023/05/25 02:06:02;;;;;;;11.90;7.35;;;19.40;80.40;;;;;;6245637;23;20032;-77
2023/05/25 02:08:27;;;;;;;14.50;8.35;;;19.40;80.50;;;;;;6245658;23;19996;-78
2023/05/25 02:10:53;;;;;;;15.05;8.30;;;19.30;80.60;;;;;;6245495;23;20027;-78
2023/05/25 02:13:19;;;;;;;11.43;8.38;;;19.30;80.80;;;;;;6193348;23;20000;-78
2023/05/25 02:15:45;;;;;;;12.75;7.85;;;19.30;81.10;;;;;;6245185;23;20015;-78
2023/05/25 02:18:12;;;;;;;12.27;7.85;;;19.20;81.20;;;;;;6245334;23;20028;-78
2023/05/25 02:20:38;;;;;;;12.63;8.32;;;19.20;81.20;;;;;;6218514;23;20036;-78
2023/05/25 02:23:04;;;;;;;12.73;8.45;;;19.20;81.50;;;;;;6218536;23;20455;-78
2023/05/25 02:25:29;;;;;;;10.95;7.85;;;19.20;81.60;;;;;;6245383;23;20000;-80
2023/05/25 02:27:55;;;;;;;16.20;8.93;;;19.10;81.60;;;;;;6245419;23;19996;-78
2023/05/25 02:30:21;;;;;;;19.17;9.90;;;19.10;81.70;;;;;;6245517;23;20004;-78
2023/05/25 02:32:46;;;;;;;17.85;9.55;;;19.10;81.80;;;;;;6245622;23;19996;-77
2023/05/25 02:35:12;;;;;;;11.25;8.95;;;19.00;82.20;;;;;;6245473;23;20335;-77
2023/05/25 02:37:38;;;;;;;13.90;8.95;;;19.10;82.40;;;;;;6245396;23;20035;-77
2023/05/25 02:40:06;;;;;;;18.58;10.27;;;19.10;82.50;;;;;;6219090;23;20398;-77
2023/05/25 02:42:31;;;;;;;13.30;9.88;;;19.20;82.90;;;;;;6246515;23;20279;-76
2023/05/25 02:44:57;;;;;;;14.10;9.10;;;19.10;82.70;;;;;;6245425;23;20003;-77
2023/05/25 02:47:23;;;;;;;17.25;9.57;;;19.20;83.00;;;;;;6245872;23;20062;-78
2023/05/25 02:49:48;;;;;;;12.85;9.45;;;19.20;83.00;;;;;;6244993;23;20008;-78
2023/05/25 02:52:14;;;;;;;15.73;10.20;;;19.10;82.90;;;;;;6245270;23;20402;-78
2023/05/25 02:54:40;;;;;;;14.95;9.57;;;19.10;83.30;;;;;;6245348;23;20055;-77
2023/05/25 02:57:07;;;;;;;14.63;9.82;;;19.00;83.20;;;;;;6245163;23;20012;-77
2023/05/25 02:59:32;;;;;;;19.80;9.85;;;19.00;83.60;;;;;;6245655;23;20418;-76
2023/05/25 03:01:58;;;;;;;15.25;9.98;;;19.00;83.80;;;;;;6245329;23;20007;-79
2023/05/25 03:04:25;;;;;;;19.13;9.80;;;18.90;83.80;;;;;;6245176;23;20024;-78
2023/05/25 03:06:50;;;;;;;14.05;10.00;;;18.90;84.10;;;;;;6245185;23;20004;-78
2023/05/25 03:09:16;;;;;;;19.88;10.55;;;18.90;84.10;;;;;;6245121;23;20006;-77
2023/05/25 03:11:42;;;;;;;26.85;10.60;;;18.90;84.20;;;;;;6245323;23;20433;-77
2023/05/25 03:14:09;;;;;;;15.55;9.52;;;18.90;85.10;;;;;;6245412;23;19996;-77
2023/05/25 03:16:37;;;;;;;20.45;9.00;;;18.80;84.80;;;;;;6244779;23;20015;-78
2023/05/25 03:19:06;;;;;;;14.70;8.98;;;18.90;84.80;;;;;;6245186;23;20437;-77
2023/05/25 03:21:32;;;;;;;18.17;8.93;;;18.80;84.90;;;;;;6245131;23;20004;-77
2023/05/25 03:23:58;;;;;;;11.60;7.93;;;18.80;84.90;;;;;;6217934;23;20038;-77
2023/05/25 03:26:24;;;;;;;14.00;7.80;;;18.70;85.00;;;;;;6244815;23;20007;-77
2023/05/25 03:28:51;;;;;;;18.35;7.85;;;18.70;85.30;;;;;;6244457;23;20015;-78
2023/05/25 03:31:17;;;;;;;14.27;7.95;;;18.70;84.50;;;;;;6244929;23;20000;-77
2023/05/25 03:33:43;;;;;;;14.13;8.40;;;18.70;84.70;;;;;;6245136;23;20099;-77
2023/05/25 03:36:09;;;;;;;12.68;7.40;;;18.70;84.60;;;;;;6245201;23;20008;-78
2023/05/25 03:38:38;;;;;;;15.38;7.97;;;18.70;84.80;;;;;;6244613;23;20375;-77
2023/05/25 03:41:04;;;;;;;14.02;8.05;;;18.70;84.70;;;;;;6245056;23;20004;-78
2023/05/25 03:43:30;;;;;;;11.52;7.78;;;18.70;84.70;;;;;;6244787;23;20145;-77
2023/05/25 03:45:56;;;;;;;12.38;8.00;;;18.70;84.90;;;;;;6245029;23;20334;-76
2023/05/25 03:48:22;;;;;;;9.05;7.28;;;18.70;84.80;;;;;;6245745;23;20007;-78
2023/05/25 03:50:47;;;;;;;12.05;7.15;;;18.70;84.80;;;;;;6244977;23;20138;-77
2023/05/25 03:53:13;;;;;;;12.68;8.93;;;18.70;84.90;;;;;;6244377;23;20000;-78
2023/05/25 03:55:39;;;;;;;12.95;8.07;;;18.70;84.90;;;;;;6245091;23;20004;-77
2023/05/25 03:58:04;;;;;;;15.55;8.57;;;18.80;85.20;;;;;;6244697;23;20000;-78
2023/05/25 04:00:30;;;;;;;15.13;7.53;;;18.70;84.90;;;;;;6244574;23;20308;-76
2023/05/25 04:02:56;;;;;;;13.32;7.80;;;18.70;85.00;;;;;;6243979;23;20426;-77
2023/05/25 04:05:22;;;;;;;10.60;7.90;;;18.70;85.00;;;;;;6217462;23;20430;-78
2023/05/25 04:07:47;;;;;;;13.43;7.35;;;18.70;84.70;;;;;;6244826;23;20071;-76
2023/05/25 04:10:13;;;;;;;10.40;7.22;;;18.70;85.00;;;;;;6244258;23;20023;-78
2023/05/25 04:12:39;;;;;;;9.32;7.32;;;18.70;84.60;;;;;;6244304;23;20071;-78
2023/05/25 04:15:07;;;;;;;16.50;7.90;;;18.70;84.70;;;;;;6244558;23;20474;-78
2023/05/25 04:17:34;;;;;;;10.63;7.45;;;18.70;84.80;;;;;;6244184;23;20077;-78
2023/05/25 04:20:01;;;;;;;13.98;7.25;;;18.70;84.40;;;;;;6216956;23;20441;-78
2023/05/25 04:22:26;;;;;;;16.80;7.57;;;18.70;84.60;;;;;;6244537;23;20000;-77
2023/05/25 04:24:52;;;;;;;11.45;7.70;;;18.60;84.50;;;;;;6244671;23;20007;-77
2023/05/25 04:27:19;;;;;;;11.98;6.95;;;18.60;84.70;;;;;;6244790;23;20031;-78
2023/05/25 04:29:45;;;;;;;11.35;8.38;;;18.70;84.60;;;;;;6245051;23;20076;-76
2023/05/25 04:32:16;;;;;;;16.25;7.25;;;18.70;84.50;;;;;;6245340;23;20426;-78
2023/05/25 04:34:43;;;;;;;15.60;8.43;;;18.70;84.70;;;;;;6245603;23;20001;-78
2023/05/25 04:37:09;;;;;;;14.35;7.45;;;18.70;84.50;;;;;;6244430;23;20035;-78
2023/05/25 04:39:35;;;;;;;11.90;7.22;;;18.70;84.50;;;;;;6217591;23;20000;-77
2023/05/25 04:42:04;;;;;;;13.65;7.78;;;18.70;84.60;;;;;;6244696;23;20062;-78
2023/05/25 04:44:31;;;;;;;13.23;7.43;;;18.70;84.70;;;;;;6244458;23;20020;-77
2023/05/25 04:46:58;;;;;;;9.60;7.35;;;18.80;84.50;;;;;;6244708;23;20012;-78
2023/05/25 04:49:25;;;;;;;13.95;7.05;;;18.90;84.40;;;;;;6244788;23;20012;-78
2023/05/25 04:51:51;;;;;;;11.63;7.55;;;19.00;84.10;;;;;;6244418;23;20069;-77
2023/05/25 04:54:17;;;;;;;11.48;7.63;;;19.00;83.90;;;;;;6244057;23;20042;-78
2023/05/25 04:56:43;;;;;;;11.38;7.82;;;19.10;83.90;;;;;;6243767;23;20012;-77
2023/05/25 04:59:09;;;;;;;10.88;7.50;;;19.20;83.60;;;;;;6244055;23;20012;-77
2023/05/25 05:01:40;;;;;;;13.15;7.43;;;19.20;83.60;;;;;;6244091;23;20383;-78
2023/05/25 05:04:07;;;;;;;11.13;7.40;;;19.20;83.40;;;;;;6243891;23;20024;-78
2023/05/25 05:06:33;;;;;;;15.27;8.13;;;19.20;83.10;;;;;;6244374;23;20007;-77
2023/05/25 05:09:00;;;;;;;15.65;8.68;;;19.30;83.60;;;;;;6244223;23;20003;-78
2023/05/25 05:11:27;;;;;;;13.43;7.95;;;19.30;83.40;;;;;;6244002;23;20000;-78
2023/05/25 05:13:56;;;;;;;13.13;7.82;;;19.40;83.30;;;;;;6244153;23;20008;-78
2023/05/25 05:16:21;;;;;;;12.65;7.32;;;19.50;82.80;;;;;;6243825;23;20012;-78
2023/05/25 05:18:47;;;;;;;14.10;7.55;;;19.80;82.30;;;;;;6243899;23;20024;-78
2023/05/25 05:21:13;;;;;;;13.70;7.72;;;19.90;81.90;;;;;;6244158;23;20434;-78
2023/05/25 05:23:41;;;;;;;11.05;6.90;;;20.10;81.30;;;;;;6245835;23;20003;-78
2023/05/25 05:26:09;;;;;;;14.30;7.30;;;20.30;80.60;;;;;;6218676;23;20011;-77
2023/05/25 05:28:35;;;;;;;9.93;6.82;;;20.40;80.10;;;;;;6245769;23;20023;-78
2023/05/25 05:31:01;;;;;;;13.23;7.00;;;20.60;79.40;;;;;;6245966;23;20031;-78
2023/05/25 05:33:27;;;;;;;12.02;7.97;;;20.70;79.10;;;;;;6246017;23;20016;-78
2023/05/25 05:35:53;;;;;;;15.35;7.32;;;20.90;78.70;;;;;;6245890;23;20075;-78
2023/05/25 05:38:20;;;;;;;16.73;7.55;;;21.10;78.50;;;;;;6245979;23;20001;-79
2023/05/25 05:40:45;;;;;;;14.82;7.15;;;21.20;77.80;;;;;;6245663;23;20039;-79
2023/05/25 05:43:12;;;;;;;11.25;6.00;;;21.30;77.30;;;;;;6245340;23;20091;-78
2023/05/25 05:45:38;;;;;;;11.80;6.70;;;21.40;76.10;;;;;;6245860;23;20007;-79
2023/05/25 05:48:08;;;;;;;12.30;6.35;;;21.40;76.40;;;;;;6245949;23;20079;-78
2023/05/25 05:50:35;;;;;;;11.93;5.97;;;21.60;76.00;;;;;;6246121;23;20385;-79
2023/05/25 05:53:01;;;;;;;12.60;6.40;;;21.70;75.30;;;;;;6245616;23;20004;-77
2023/05/25 05:55:27;;;;;;;10.35;6.43;;;21.90;74.90;;;;;;6245906;23;19996;-77
2023/05/25 05:57:52;;;;;;;14.80;6.47;;;22.00;74.60;;;;;;6245603;23;20008;-80
2023/05/25 06:00:18;;;;;;;13.15;6.43;;;22.10;74.10;;;;;;6246099;23;20090;-79
2023/05/25 06:02:44;;;;;;;12.48;6.18;;;22.10;73.90;;;;;;6246008;23;20430;-79
2023/05/25 06:05:11;;;;;;;10.40;6.50;;;22.20;73.50;;;;;;6218418;23;20043;-77
2023/05/25 06:07:37;;;;;;;13.73;6.30;;;22.30;73.20;;;;;;6245489;23;20012;-78
2023/05/25 06:10:04;;;;;;;11.10;5.90;;;22.30;72.80;;;;;;6245233;23;20016;-77
2023/05/25 06:12:29;;;;;;;12.35;5.50;;;22.50;72.60;;;;;;6245551;23;20075;-77
2023/05/25 06:14:55;;;;;;;10.88;5.22;;;22.60;72.10;;;;;;6245250;23;20465;-79
2023/05/25 06:17:22;;;;;;;9.30;5.70;;;22.90;71.70;;;;;;6217643;23;20012;-76
2023/05/25 06:19:51;;;;;;;13.60;5.80;;;23.00;71.20;;;;;;6245148;23;20067;-76
2023/05/25 06:22:17;;;;;;;11.40;5.93;;;23.00;71.50;;;;;;6245328;23;20008;-77
2023/05/25 06:24:42;;;;;;;10.38;5.78;;;23.00;70.90;;;;;;6245454;23;20008;-75
2023/05/25 06:27:08;;;;;;;15.52;6.07;;;23.00;70.90;;;;;;6245430;23;20427;-76
2023/05/25 06:29:34;;;;;;;17.27;6.75;;;23.10;70.70;;;;;;6246229;23;20001;-77
2023/05/25 06:32:00;;;;;;;17.23;6.47;;;23.10;70.40;;;;;;6245067;23;20034;-74
2023/05/25 06:34:25;;;;;;;10.60;6.07;;;23.10;70.60;;;;;;6246148;23;20076;-78
2023/05/25 06:36:51;;;;;;;13.00;6.35;;;22.90;70.70;;;;;;6220204;23;20020;-75
2023/05/25 06:39:18;;;;;;;12.98;6.03;;;22.90;70.90;;;;;;6246336;23;20054;-76
2023/05/25 06:41:43;;;;;;;14.73;6.85;;;23.10;70.60;;;;;;6245180;23;20010;-76
2023/05/25 06:44:09;;;;;;;15.43;6.13;;;23.30;70.60;;;;;;6246650;23;20031;-75
2023/05/25 06:46:35;;;;;;;10.27;5.63;;;23.40;70.20;;;;;;6245592;23;20083;-76
2023/05/25 06:49:01;;;;;;;15.05;6.88;;;23.50;70.00;;;;;;6245451;23;20399;-77
2023/05/25 06:51:28;;;;;;;14.43;6.45;;;23.50;69.60;;;;;;6218163;23;20012;-78
2023/05/25 06:53:57;;;;;;;13.65;5.63;;;23.60;70.00;;;;;;6245762;23;20334;-75
2023/05/25 06:56:23;;;;;;;14.43;6.97;;;23.60;69.70;;;;;;6246833;23;20008;-76
2023/05/25 06:58:49;;;;;;;11.00;6.65;;;23.70;69.60;;;;;;6245570;23;20374;-76
2023/05/25 07:01:15;;;;;;;12.00;6.70;;;23.60;69.60;;;;;;6218396;23;20008;-76
2023/05/25 07:03:41;;;;;;;14.07;6.72;;;23.60;69.70;;;;;;6246034;23;20020;-77
2023/05/25 07:06:08;;;;;;;10.02;6.20;;;23.70;70.00;;;;;;6245736;23;19996;-78
2023/05/25 07:08:33;;;;;;;19.50;6.78;;;23.80;70.00;;;;;;6245564;23;20318;-77
2023/05/25 07:10:59;;;;;;;12.75;6.97;;;23.90;69.90;;;;;;6245181;23;19996;-78
2023/05/25 07:13:25;;;;;;;12.68;6.75;;;24.10;69.70;;;;;;6218180;23;20009;-75
2023/05/25 07:15:51;;;;;;;13.65;6.53;;;24.20;69.10;;;;;;6244673;23;20019;-75
2023/05/25 07:18:17;;;;;;;12.10;6.68;;;24.40;69.30;;;;;;6245315;23;20080;-76
2023/05/25 07:20:43;;;;;;;21.42;6.50;;;24.40;69.00;;;;;;6245428;23;20004;-77
2023/05/25 07:23:10;;;;;;;12.07;6.13;;;24.50;68.90;;;;;;6245236;23;20008;-78
2023/05/25 07:25:37;;;;;;;15.85;6.18;;;24.70;68.80;;;;;;6217884;23;20000;-77
2023/05/25 07:28:03;;;;;;;25.13;6.88;;;24.70;68.50;;;;;;6242731;23;20508;-77
2023/05/25 07:30:29;;;;;;;18.15;6.40;;;24.80;68.40;;;;;;6244818;23;20012;-77
2023/05/25 07:32:55;;;;;;;17.35;6.68;;;24.80;68.10;;;;;;6245484;23;20039;-76
2023/05/25 07:35:21;;;;;;;24.55;7.40;;;24.80;68.10;;;;;;6244595;23;20406;-76
2023/05/25 07:37:55;;;;;;;11.48;6.30;;;24.80;68.60;;;;;;6244626;23;20039;-74
2023/05/25 07:40:21;;;;;;;21.23;7.15;;;24.70;67.90;;;;;;6244560;23;20433;-76
2023/05/25 07:42:47;;;;;;;21.95;6.65;;;24.60;67.70;;;;;;6244527;23;20010;-78
2023/05/25 07:45:12;;;;;;;18.02;6.95;;;24.50;67.70;;;;;;6244250;23;20030;-75
2023/05/25 07:47:38;;;;;;;15.07;6.60;;;24.50;67.80;;;;;;6244751;23;20317;-76
2023/05/25 07:50:05;;;;;;;14.73;6.90;;;24.50;67.90;;;;;;6244259;23;20000;-76
2023/05/25 07:52:31;;;;;;;21.27;8.13;;;24.50;67.40;;;;;;6244261;23;20007;-76
2023/05/25 07:54:56;;;;;;;10.90;5.93;;;24.60;67.10;;;;;;6244346;23;20028;-79
2023/05/25 07:57:22;;;;;;;16.65;6.15;;;24.60;67.30;;;;;;6244041;23;20008;-76
2023/05/25 07:59:48;;;;;;;12.52;6.50;;;24.70;67.10;;;;;;6244271;23;20000;-76
2023/05/25 08:02:13;;;;;;;10.57;5.90;;;24.80;67.10;;;;;;6244042;23;20032;-76
2023/05/25 08:04:39;;;;;;;11.00;6.38;;;24.80;67.20;;;;;;6244081;23;20012;-75
2023/05/25 08:07:05;;;;;;;12.38;6.45;;;24.80;67.00;;;;;;6244041;23;20012;-75
2023/05/25 08:09:31;;;;;;;12.65;5.53;;;24.70;67.20;;;;;;6217704;23;20016;-76
2023/05/25 08:11:57;;;;;;;12.55;6.15;;;24.70;67.10;;;;;;6244438;23;20054;-79
2023/05/25 08:14:22;;;;;;;11.10;5.85;;;24.70;66.90;;;;;;6217663;23;20422;-79
2023/05/25 08:16:50;;;;;;;11.90;5.95;;;24.70;66.90;;;;;;6244443;23;20405;-75
2023/05/25 08:19:15;;;;;;;8.98;5.75;;;24.70;67.30;;;;;;6244001;23;20049;-80
2023/05/25 08:21:41;;;;;;;12.75;6.82;;;24.70;67.00;;;;;;6244550;23;20154;-78
2023/05/25 08:24:07;;;;;;;15.40;5.90;;;24.80;67.20;;;;;;6245186;23;20012;-81
2023/05/25 08:26:35;;;;;;;12.57;6.65;;;24.80;67.20;;;;;;6245783;23;20036;-83
2023/05/25 08:29:02;;;;;;;46.55;10.57;;;24.80;67.10;;;;;;6246720;23;20441;-86
2023/05/25 08:31:30;;;;;;;16.77;6.60;;;24.80;66.80;;;;;;6222182;23;20061;-81
2023/05/25 08:33:55;;;;;;;22.67;7.10;;;24.80;67.10;;;;;;6245741;23;20433;-83
2023/05/25 08:36:21;;;;;;;10.73;5.72;;;24.80;66.30;;;;;;6246463;23;20008;-81
2023/05/25 08:38:47;;;;;;;13.35;5.78;;;24.90;66.70;;;;;;6222521;23;20099;-81
2023/05/25 08:41:13;;;;;;;12.00;5.95;;;24.90;66.30;;;;;;6248870;23;20001;-82
2023/05/25 08:43:41;;;;;;;10.43;5.60;;;25.00;66.20;;;;;;6245850;23;20407;-82
2023/05/25 08:46:08;;;;;;;12.30;5.40;;;25.00;66.30;;;;;;6247705;23;20330;-84
2023/05/25 08:48:35;;;;;;;30.40;7.30;;;25.10;65.70;;;;;;6247286;23;20012;-83
2023/05/25 08:51:05;;;;;;;20.80;6.80;;;25.10;65.50;;;;;;6218746;23;20062;-79
2023/05/25 08:53:35;;;;;;;14.35;5.47;;;25.20;65.50;;;;;;6245706;23;20373;-80
2023/05/25 08:56:28;;;;;;;12.75;6.00;;;25.30;65.60;;;;;;6244190;23;20040;-81
2023/05/25 08:59:19;;;;;;;18.80;6.30;;;25.30;64.80;;;;;;6238944;23;20042;-82
2023/05/25 09:01:49;;;;;;;10.57;5.35;;;25.40;64.10;;;;;;6244911;23;20008;-78
2023/05/25 09:04:18;;;;;;;13.68;6.28;;;25.30;64.80;;;;;;6245021;23;20070;-80
2023/05/25 09:06:44;;;;;;;10.80;5.88;;;25.30;65.10;;;;;;6216704;23;20009;-80
2023/05/25 09:09:11;;;;;;;11.63;5.95;;;25.40;64.80;;;;;;6243935;23;20004;-80
2023/05/25 09:11:38;;;;;;;16.85;7.68;;;25.50;64.50;;;;;;6243889;23;20020;-78
2023/05/25 09:14:06;;;;;;;14.02;7.28;;;25.50;64.20;;;;;;6243774;23;20103;-78
2023/05/25 09:16:32;;;;;;;11.23;5.68;;;25.60;63.80;;;;;;6243989;23;20032;-80
2023/05/25 09:18:58;;;;;;;11.50;5.97;;;25.70;63.90;;;;;;6243861;23;20006;-81
2023/05/25 09:21:25;;;;;;;9.38;6.05;;;25.70;62.80;;;;;;6244497;23;20449;-81
2023/05/25 09:23:51;;;;;;;15.38;6.32;;;25.80;62.80;;;;;;6245417;23;20012;-80
2023/05/25 09:26:17;;;;;;;9.77;5.38;;;25.90;62.70;;;;;;6246332;23;20004;-81
2023/05/25 09:28:46;;;;;;;11.95;5.28;;;25.90;62.00;;;;;;6219388;23;20058;-80
2023/05/25 09:31:14;;;;;;;11.25;5.60;;;25.80;61.20;;;;;;6247542;23;20342;-85
2023/05/25 09:33:41;;;;;;;9.77;5.40;;;25.90;61.30;;;;;;6247781;23;20176;-85
2023/05/25 09:36:07;;;;;;;12.93;5.93;;;25.90;61.10;;;;;;6247002;23;20154;-79
2023/05/25 09:38:33;;;;;;;11.70;5.50;;;25.90;60.90;;;;;;6244364;23;20369;-79
2023/05/25 09:40:59;;;;;;;10.13;5.28;;;25.90;60.50;;;;;;6244041;23;19996;-75
2023/05/25 09:43:25;;;;;;;11.73;4.95;;;26.00;60.00;;;;;;6243657;23;20024;-78
2023/05/25 09:45:54;;;;;;;16.58;8.60;;;26.00;59.40;;;;;;6243785;23;20403;-74
2023/05/25 09:48:23;;;;;;;16.40;6.38;;;26.10;61.10;;;;;;6243794;23;20078;-75
2023/05/25 09:50:50;;;;;;;7.55;4.82;;;26.20;59.40;;;;;;6216734;23;20083;-74
2023/05/25 09:53:16;;;;;;;12.13;5.20;;;26.30;59.10;;;;;;6243651;23;20000;-72
2023/05/25 09:55:41;;;;;;;14.10;5.13;;;26.30;57.90;;;;;;6243258;23;20047;-75
2023/05/25 09:58:07;;;;;;;16.95;5.65;;;26.40;56.70;;;;;;6243553;23;20031;-77
2023/05/25 10:00:33;;;;;;;12.10;4.93;;;26.40;56.90;;;;;;6244040;23;19996;-75
2023/05/25 10:02:59;;;;;;;19.55;7.28;;;26.50;56.70;;;;;;6243228;23;20327;-73
2023/05/25 10:05:25;;;;;;;28.15;10.48;;;26.50;57.10;;;;;;6243456;23;20032;-74
2023/05/25 10:07:52;;;;;;;19.05;8.52;;;26.50;58.00;;;;;;6244661;23;20004;-75
2023/05/25 10:10:18;;;;;;;18.75;6.15;;;26.40;58.00;;;;;;6245343;23;20630;-74
2023/05/25 10:12:45;;;;;;;16.08;7.75;;;26.50;57.00;;;;;;6245495;23;20000;-72
2023/05/25 10:15:12;;;;;;;15.38;5.68;;;26.50;56.70;;;;;;6245294;23;20039;-72
2023/05/25 10:17:46;;;;;;;9.95;5.25;;;26.60;56.10;;;;;;6245671;23;20110;-72
2023/05/25 10:20:13;;;;;;;14.45;5.30;;;26.60;55.80;;;;;;6244999;23;20007;-71
2023/05/25 10:22:55;;;;;;;18.13;5.47;;;26.70;55.30;;;;;;6245631;23;20075;-71
2023/05/25 10:25:32;;;;;;;30.73;7.40;;;26.70;54.70;;;;;;6245223;23;20008;-73
2023/05/25 10:28:18;;;;;;;12.90;5.60;;;26.80;55.50;;;;;;6244988;23;20038;-69
2023/05/25 10:30:45;;;;;;;14.88;5.28;;;26.90;54.90;;;;;;6245190;23;20004;-70
2023/05/25 10:33:11;;;;;;;13.98;5.05;;;27.00;55.10;;;;;;6245392;23;20000;-69
2023/05/25 10:35:39;;;;;;;16.50;5.32;;;27.00;54.40;;;;;;6244617;23;20035;-70
2023/05/25 10:38:05;;;;;;;9.05;4.60;;;27.10;54.80;;;;;;6244558;23;20008;-69
2023/05/25 10:40:33;;;;;;;9.57;4.72;;;27.10;54.20;;;;;;6244674;23;19997;-69
2023/05/25 10:42:59;;;;;;;10.30;5.10;;;27.20;53.80;;;;;;6245075;23;20031;-73
2023/05/25 10:45:25;;;;;;;10.55;4.75;;;27.20;53.60;;;;;;6244899;23;20434;-77
2023/05/25 10:47:51;;;;;;;9.48;4.65;;;27.20;53.20;;;;;;6244964;23;20050;-78
2023/05/25 10:50:23;;;;;;;9.90;4.88;;;27.20;53.30;;;;;;6244498;23;20000;-78
2023/05/25 10:53:05;;;;;;;8.68;4.60;;;27.20;52.40;;;;;;6244352;23;20003;-78
2023/05/25 10:55:52;;;;;;;14.60;5.00;;;27.20;52.40;;;;;;6244898;23;20407;-78
2023/05/25 10:58:20;;;;;;;9.75;4.88;;;27.20;51.80;;;;;;6244939;23;20028;-77
2023/05/25 11:01:07;;;;;;;10.95;4.97;;;27.30;54.00;;;;;;6244693;23;20008;-78
2023/05/25 11:03:55;;;;;;;14.57;5.07;;;27.40;53.20;;;;;;6217827;23;20023;-78
2023/05/25 11:06:39;;;;;;;10.68;5.15;;;27.50;52.40;;;;;;6244890;23;20023;-78
2023/05/25 11:09:05;;;;;;;;;;;27.60;51.90;;;;;;6218589;23;20042;-78
2023/05/25 11:11:44;;;;;;;9.07;5.43;;;27.70;53.00;;;;;;6245128;23;19907;-78
2023/05/25 11:14:26;;;;;;;8.15;4.88;;;27.90;52.80;;;;;;6244829;23;20004;-78
2023/05/25 11:17:13;;;;;;;8.93;4.72;;;27.90;51.20;;;;;;6244224;23;20020;-78
2023/05/25 11:19:43;;;;;;;9.60;5.32;;;28.00;51.00;;;;;;6244475;23;20514;-78
2023/05/25 11:22:14;;;;;;;10.90;4.90;;;28.00;52.30;;;;;;6244832;23;20023;-77
2023/05/25 11:24:43;;;;;;;7.65;4.93;;;28.10;51.80;;;;;;6217900;23;20030;-78
2023/05/25 11:27:10;;;;;;;10.63;4.82;;;28.10;51.50;;;;;;6245005;23;20008;-78
2023/05/25 11:29:36;;;;;;;9.18;4.70;;;28.10;51.30;;;;;;6244768;23;20004;-79
2023/05/25 11:32:02;;;;;;;8.50;4.95;;;28.10;51.10;;;;;;6217587;23;20391;-78
2023/05/25 11:34:30;;;;;;;7.55;4.45;;;28.20;50.90;;;;;;6245000;23;20303;-79
2023/05/25 11:37:03;;;;;;;6.90;4.60;;;28.40;50.80;;;;;;6245013;23;20035;-77
2023/05/25 11:39:30;;;;;;;8.57;4.77;;;28.50;50.50;;;;;;6245486;23;20024;-79
2023/05/25 11:42:03;;;;;;;10.27;5.30;;;28.60;50.30;;;;;;6244784;23;20295;-79
2023/05/25 11:44:35;;;;;;;8.27;4.87;;;28.70;50.00;;;;;;6244942;23;19996;-78
2023/05/25 11:47:07;;;;;;;9.90;5.53;;;28.70;48.30;;;;;;6244977;23;20103;-79
2023/05/25 11:49:34;;;;;;;10.68;4.70;;;28.80;47.90;;;;;;6244284;23;19996;-79
2023/05/25 11:52:07;;;;;;;10.00;5.20;;;28.80;49.20;;;;;;6244632;23;20426;-79
2023/05/25 11:54:34;;;;;;;8.50;4.53;;;28.80;49.10;;;;;;6244921;23;20046;-77
2023/05/25 11:57:00;;;;;;;9.07;5.13;;;28.90;48.50;;;;;;6244472;23;20089;-79
2023/05/25 11:59:27;;;;;;;13.20;5.40;;;28.90;48.70;;;;;;6217272;23;20074;-79
2023/05/25 12:02:03;;;;;;;9.73;5.50;;;29.00;48.50;;;;;;6244384;23;20000;-79
2023/05/25 12:04:31;;;;;;;13.23;6.28;;;29.00;49.60;;;;;;6243978;23;20020;-79
2023/05/25 12:07:04;;;;;;;11.77;6.22;;;29.10;51.60;;;;;;6244990;23;20318;-79
2023/05/25 12:09:31;;;;;;;9.73;5.95;;;29.20;52.80;;;;;;6244531;23;19997;-78
2023/05/25 12:11:57;;;;;;;9.45;6.25;;;29.20;53.30;;;;;;6244213;23;20077;-80
2023/05/25 12:14:23;;;;;;;15.55;6.50;;;29.30;54.60;;;;;;6244838;23;20000;-79
2023/05/25 12:16:50;;;;;;;13.45;5.72;;;29.40;54.70;;;;;;6245140;23;20014;-77
2023/05/25 12:19:17;;;;;;;14.30;6.70;;;29.40;55.10;;;;;;6244929;23;20000;-79
2023/05/25 12:21:43;;;;;;;13.38;6.65;;;29.50;55.30;;;;;;6244766;23;20000;-79
2023/05/25 12:24:11;;;;;;;10.07;6.05;;;29.60;55.60;;;;;;6244113;23;20003;-79
2023/05/25 12:26:56;;;;;;;14.52;5.80;;;29.70;55.40;;;;;;6245031;23;20031;-79
2023/05/25 12:29:22;;;;;;;13.25;5.68;;;29.80;55.80;;;;;;6245384;23;20377;-78
2023/05/25 12:31:47;;;;;;;15.98;6.05;;;29.90;55.30;;;;;;6244716;23;20079;-79
2023/05/25 12:34:15;;;;;;;12.98;5.90;;;29.90;54.90;;;;;;6244510;23;20034;-79
2023/05/25 12:36:52;;;;;;;9.45;5.53;;;30.00;54.90;;;;;;6217817;23;20054;-78
2023/05/25 12:39:30;;;;;;;10.85;6.40;;;30.00;54.60;;;;;;6243915;23;20338;-78
2023/05/25 12:42:01;;;;;;;12.10;5.72;;;30.00;54.50;;;;;;6244249;23;20008;-78